Port Allen, Louisiana
Current Conditions -  °F | °C
As of 4:53 AM on Sunday 23 Nov 2014 (Local Time) from KBTR Reporting Station
Light Rain Light Rain  
Wind Chill: 64°   Ceiling: 600
Heat Index: 64°   Visibility: 10mi
Dew Point: 62°   Wind: 8mph
Humidity: 93%   Direction: 110°ESE
Pressure: 29.73"   Gusts: NA
Location:  30.46°N, 91.21°W
Report Text: KBTR 231053Z 11007KT 10SM -RA OVC006 18/17 A2973 RMK AO2 RAE04B41 SLP066 P0000 T01780167 $
Loading
Personal Weather Stations






























Interactive Weather Map New forecast layout! Learn more

10-Day Weather Forecast

Advertisements
Track Severe Weather on mobile